sensor_id;sensor_type;location;lat;lon;timestamp;temperature;humidity
47520;DHT22;33252;48.122;11.538;2023-12-28T00:01:49;5.10;87.00
47520;DHT22;33252;48.122;11.538;2023-12-28T00:04:16;5.20;85.90
47520;DHT22;33252;48.122;11.538;2023-12-28T00:06:41;5.20;87.20
47520;DHT22;33252;48.122;11.538;2023-12-28T00:09:08;5.10;86.70
47520;DHT22;33252;48.122;11.538;2023-12-28T00:11:33;5.10;86.20
47520;DHT22;33252;48.122;11.538;2023-12-28T00:13:59;5.10;86.50
47520;DHT22;33252;48.122;11.538;2023-12-28T00:16:25;5.10;86.60
47520;DHT22;33252;48.122;11.538;2023-12-28T00:18:50;5.10;86.10
47520;DHT22;33252;48.122;11.538;2023-12-28T00:21:16;5.10;86.10
47520;DHT22;33252;48.122;11.538;2023-12-28T00:23:41;5.10;87.00
47520;DHT22;33252;48.122;11.538;2023-12-28T00:26:07;5.00;86.50
47520;DHT22;33252;48.122;11.538;2023-12-28T00:28:32;5.00;86.60
47520;DHT22;33252;48.122;11.538;2023-12-28T00:30:58;5.10;86.50
47520;DHT22;33252;48.122;11.538;2023-12-28T00:33:23;5.00;87.80
47520;DHT22;33252;48.122;11.538;2023-12-28T00:35:49;4.90;87.20
47520;DHT22;33252;48.122;11.538;2023-12-28T00:38:14;4.90;87.20
47520;DHT22;33252;48.122;11.538;2023-12-28T00:40:40;4.80;88.00
47520;DHT22;33252;48.122;11.538;2023-12-28T00:43:05;4.80;87.50
47520;DHT22;33252;48.122;11.538;2023-12-28T00:45:31;4.80;87.70
47520;DHT22;33252;48.122;11.538;2023-12-28T00:47:56;4.80;87.80
47520;DHT22;33252;48.122;11.538;2023-12-28T00:50:22;4.80;87.40
47520;DHT22;33252;48.122;11.538;2023-12-28T00:52:47;4.80;87.20
47520;DHT22;33252;48.122;11.538;2023-12-28T00:55:13;4.70;87.70
47520;DHT22;33252;48.122;11.538;2023-12-28T00:57:39;4.50;88.40
47520;DHT22;33252;48.122;11.538;2023-12-28T01:00:05;4.50;89.10
47520;DHT22;33252;48.122;11.538;2023-12-28T01:02:30;4.50;90.30
47520;DHT22;33252;48.122;11.538;2023-12-28T01:04:56;4.30;90.10
47520;DHT22;33252;48.122;11.538;2023-12-28T01:07:21;4.20;90.50
47520;DHT22;33252;48.122;11.538;2023-12-28T01:09:47;4.10;91.10
47520;DHT22;33252;48.122;11.538;2023-12-28T01:12:12;4.20;91.00
47520;DHT22;33252;48.122;11.538;2023-12-28T01:14:38;4.20;91.10
47520;DHT22;33252;48.122;11.538;2023-12-28T01:17:03;4.00;91.20
47520;DHT22;33252;48.122;11.538;2023-12-28T01:19:29;3.90;91.20
47520;DHT22;33252;48.122;11.538;2023-12-28T01:21:55;3.90;91.30
47520;DHT22;33252;48.122;11.538;2023-12-28T01:24:20;3.90;90.30
47520;DHT22;33252;48.122;11.538;2023-12-28T01:26:46;3.90;90.60
47520;DHT22;33252;48.122;11.538;2023-12-28T01:29:11;4.00;91.20
47520;DHT22;33252;48.122;11.538;2023-12-28T01:31:37;4.00;90.10
47520;DHT22;33252;48.122;11.538;2023-12-28T01:34:04;3.90;91.10
47520;DHT22;33252;48.122;11.538;2023-12-28T01:36:29;3.90;91.10
47520;DHT22;33252;48.122;11.538;2023-12-28T01:38:55;3.80;91.60
47520;DHT22;33252;48.122;11.538;2023-12-28T01:41:21;3.90;90.60
47520;DHT22;33252;48.122;11.538;2023-12-28T01:43:46;3.90;91.10
47520;DHT22;33252;48.122;11.538;2023-12-28T01:46:16;3.80;91.40
47520;DHT22;33252;48.122;11.538;2023-12-28T01:48:44;3.80;90.70
47520;DHT22;33252;48.122;11.538;2023-12-28T01:51:10;3.90;90.70
47520;DHT22;33252;48.122;11.538;2023-12-28T01:53:37;4.00;90.90
47520;DHT22;33252;48.122;11.538;2023-12-28T01:56:02;3.80;91.00
47520;DHT22;33252;48.122;11.538;2023-12-28T01:58:28;3.70;91.40
47520;DHT22;33252;48.122;11.538;2023-12-28T02:00:56;3.70;90.60
47520;DHT22;33252;48.122;11.538;2023-12-28T02:03:22;3.70;90.60
47520;DHT22;33252;48.122;11.538;2023-12-28T02:05:47;3.70;90.50
47520;DHT22;33252;48.122;11.538;2023-12-28T02:08:13;3.80;91.70
47520;DHT22;33252;48.122;11.538;2023-12-28T02:10:39;3.80;91.20
47520;DHT22;33252;48.122;11.538;2023-12-28T02:13:04;3.90;90.60
47520;DHT22;33252;48.122;11.538;2023-12-28T02:15:30;3.90;90.10
47520;DHT22;33252;48.122;11.538;2023-12-28T02:18:11;3.90;91.10
47520;DHT22;33252;48.122;11.538;2023-12-28T02:20:39;3.90;91.20
47520;DHT22;33252;48.122;11.538;2023-12-28T02:23:05;3.90;90.80
47520;DHT22;33252;48.122;11.538;2023-12-28T02:25:31;4.00;90.10
47520;DHT22;33252;48.122;11.538;2023-12-28T02:27:57;4.20;88.80
47520;DHT22;33252;48.122;11.538;2023-12-28T02:30:23;4.40;88.60
47520;DHT22;33252;48.122;11.538;2023-12-28T02:35:42;4.60;86.90
47520;DHT22;33252;48.122;11.538;2023-12-28T02:38:10;4.80;86.70
47520;DHT22;33252;48.122;11.538;2023-12-28T02:40:38;4.80;87.20
47520;DHT22;33252;48.122;11.538;2023-12-28T02:43:05;4.70;89.00
47520;DHT22;33252;48.122;11.538;2023-12-28T02:45:31;4.70;87.70
47520;DHT22;33252;48.122;11.538;2023-12-28T02:47:56;4.60;88.90
47520;DHT22;33252;48.122;11.538;2023-12-28T02:50:22;4.50;87.90
47520;DHT22;33252;48.122;11.538;2023-12-28T02:52:47;4.50;88.50
47520;DHT22;33252;48.122;11.538;2023-12-28T02:55:13;4.40;89.70
47520;DHT22;33252;48.122;11.538;2023-12-28T02:57:38;4.30;89.80
47520;DHT22;33252;48.122;11.538;2023-12-28T03:00:05;4.40;88.10
47520;DHT22;33252;48.122;11.538;2023-12-28T03:02:30;4.50;87.70
47520;DHT22;33252;48.122;11.538;2023-12-28T03:04:56;4.50;87.30
47520;DHT22;33252;48.122;11.538;2023-12-28T03:07:21;4.50;87.30
47520;DHT22;33252;48.122;11.538;2023-12-28T03:09:47;4.50;87.50
47520;DHT22;33252;48.122;11.538;2023-12-28T03:12:12;4.50;87.80
47520;DHT22;33252;48.122;11.538;2023-12-28T03:14:38;4.50;87.30
47520;DHT22;33252;48.122;11.538;2023-12-28T03:17:03;4.40;87.80
47520;DHT22;33252;48.122;11.538;2023-12-28T03:19:29;4.40;87.70
47520;DHT22;33252;48.122;11.538;2023-12-28T03:21:54;4.50;87.30
47520;DHT22;33252;48.122;11.538;2023-12-28T03:24:20;4.50;86.80
47520;DHT22;33252;48.122;11.538;2023-12-28T03:26:45;4.60;86.30
47520;DHT22;33252;48.122;11.538;2023-12-28T03:29:11;4.60;87.10
47520;DHT22;33252;48.122;11.538;2023-12-28T03:31:40;4.60;86.50
47520;DHT22;33252;48.122;11.538;2023-12-28T03:34:06;4.70;85.90
47520;DHT22;33252;48.122;11.538;2023-12-28T03:36:31;4.70;85.70
47520;DHT22;33252;48.122;11.538;2023-12-28T03:38:57;4.70;85.10
47520;DHT22;33252;48.122;11.538;2023-12-28T03:41:22;4.70;85.20
47520;DHT22;33252;48.122;11.538;2023-12-28T03:43:48;4.70;85.10
47520;DHT22;33252;48.122;11.538;2023-12-28T03:46:13;4.70;85.20
47520;DHT22;33252;48.122;11.538;2023-12-28T03:48:39;4.70;84.90
47520;DHT22;33252;48.122;11.538;2023-12-28T03:51:05;4.80;84.00
47520;DHT22;33252;48.122;11.538;2023-12-28T03:53:31;4.80;83.80
47520;DHT22;33252;48.122;11.538;2023-12-28T03:55:59;4.90;84.00
47520;DHT22;33252;48.122;11.538;2023-12-28T03:58:25;4.90;83.60
47520;DHT22;33252;48.122;11.538;2023-12-28T04:00:54;4.90;83.70
47520;DHT22;33252;48.122;11.538;2023-12-28T04:03:20;5.00;83.10
47520;DHT22;33252;48.122;11.538;2023-12-28T04:05:46;5.00;83.10
47520;DHT22;33252;48.122;11.538;2023-12-28T04:08:12;5.10;82.20
47520;DHT22;33252;48.122;11.538;2023-12-28T04:10:37;5.10;83.00
47520;DHT22;33252;48.122;11.538;2023-12-28T04:13:03;5.00;83.80
47520;DHT22;33252;48.122;11.538;2023-12-28T04:15:30;5.10;82.60
47520;DHT22;33252;48.122;11.538;2023-12-28T04:17:56;5.10;82.40
47520;DHT22;33252;48.122;11.538;2023-12-28T04:20:21;5.10;82.90
47520;DHT22;33252;48.122;11.538;2023-12-28T04:22:47;5.10;83.20
47520;DHT22;33252;48.122;11.538;2023-12-28T04:25:12;5.00;82.80
47520;DHT22;33252;48.122;11.538;2023-12-28T04:27:38;5.00;82.90
47520;DHT22;33252;48.122;11.538;2023-12-28T04:30:05;4.90;83.00
47520;DHT22;33252;48.122;11.538;2023-12-28T04:32:32;5.00;83.00
47520;DHT22;33252;48.122;11.538;2023-12-28T04:34:57;5.00;82.40
47520;DHT22;33252;48.122;11.538;2023-12-28T04:37:23;4.90;83.20
47520;DHT22;33252;48.122;11.538;2023-12-28T04:39:49;4.90;83.10
47520;DHT22;33252;48.122;11.538;2023-12-28T04:42:14;4.90;83.20
47520;DHT22;33252;48.122;11.538;2023-12-28T04:44:40;4.90;83.10
47520;DHT22;33252;48.122;11.538;2023-12-28T04:47:06;4.90;83.10
47520;DHT22;33252;48.122;11.538;2023-12-28T04:49:31;4.80;83.20
47520;DHT22;33252;48.122;11.538;2023-12-28T04:51:57;4.80;83.10
47520;DHT22;33252;48.122;11.538;2023-12-28T04:54:23;4.80;83.70
47520;DHT22;33252;48.122;11.538;2023-12-28T04:56:48;4.70;83.60
47520;DHT22;33252;48.122;11.538;2023-12-28T04:59:14;4.50;85.30
47520;DHT22;33252;48.122;11.538;2023-12-28T05:01:43;4.50;85.10
47520;DHT22;33252;48.122;11.538;2023-12-28T05:04:09;4.50;84.10
47520;DHT22;33252;48.122;11.538;2023-12-28T05:06:35;4.60;85.00
47520;DHT22;33252;48.122;11.538;2023-12-28T05:09:00;4.60;84.50
47520;DHT22;33252;48.122;11.538;2023-12-28T05:11:26;4.60;84.50
47520;DHT22;33252;48.122;11.538;2023-12-28T05:13:52;4.60;84.10
47520;DHT22;33252;48.122;11.538;2023-12-28T05:16:19;4.70;83.90
47520;DHT22;33252;48.122;11.538;2023-12-28T05:18:44;4.70;83.60
47520;DHT22;33252;48.122;11.538;2023-12-28T05:21:10;4.80;83.50
47520;DHT22;33252;48.122;11.538;2023-12-28T05:23:36;4.70;83.40
47520;DHT22;33252;48.122;11.538;2023-12-28T05:26:02;4.80;82.70
47520;DHT22;33252;48.122;11.538;2023-12-28T05:28:28;4.90;82.40
47520;DHT22;33252;48.122;11.538;2023-12-28T05:30:53;5.00;82.10
47520;DHT22;33252;48.122;11.538;2023-12-28T05:33:18;5.10;82.00
47520;DHT22;33252;48.122;11.538;2023-12-28T05:35:44;5.10;81.40
47520;DHT22;33252;48.122;11.538;2023-12-28T05:38:09;5.10;82.10
47520;DHT22;33252;48.122;11.538;2023-12-28T05:40:35;5.00;82.50
47520;DHT22;33252;48.122;11.538;2023-12-28T05:43:00;5.00;82.50
47520;DHT22;33252;48.122;11.538;2023-12-28T05:45:26;5.00;82.20
47520;DHT22;33252;48.122;11.538;2023-12-28T05:47:51;5.00;82.50
47520;DHT22;33252;48.122;11.538;2023-12-28T05:50:17;5.00;82.50
47520;DHT22;33252;48.122;11.538;2023-12-28T05:52:42;5.00;82.40
47520;DHT22;33252;48.122;11.538;2023-12-28T05:55:08;5.20;81.90
47520;DHT22;33252;48.122;11.538;2023-12-28T05:57:33;5.10;82.20
47520;DHT22;33252;48.122;11.538;2023-12-28T05:59:59;5.10;82.20
47520;DHT22;33252;48.122;11.538;2023-12-28T06:02:24;5.10;82.40
47520;DHT22;33252;48.122;11.538;2023-12-28T06:04:50;5.10;82.20
47520;DHT22;33252;48.122;11.538;2023-12-28T06:07:15;5.10;82.70
47520;DHT22;33252;48.122;11.538;2023-12-28T06:09:41;5.00;82.90
47520;DHT22;33252;48.122;11.538;2023-12-28T06:12:07;4.90;83.40
47520;DHT22;33252;48.122;11.538;2023-12-28T06:14:32;4.80;83.40
47520;DHT22;33252;48.122;11.538;2023-12-28T06:16:58;4.80;83.50
47520;DHT22;33252;48.122;11.538;2023-12-28T06:19:23;4.70;84.90
47520;DHT22;33252;48.122;11.538;2023-12-28T06:21:49;4.60;85.10
47520;DHT22;33252;48.122;11.538;2023-12-28T06:24:14;4.50;86.00
47520;DHT22;33252;48.122;11.538;2023-12-28T06:26:44;4.40;87.30
47520;DHT22;33252;48.122;11.538;2023-12-28T06:29:10;4.30;87.30
47520;DHT22;33252;48.122;11.538;2023-12-28T06:31:36;4.20;88.30
47520;DHT22;33252;48.122;11.538;2023-12-28T06:34:03;4.10;88.40
47520;DHT22;33252;48.122;11.538;2023-12-28T06:36:29;4.00;88.50
47520;DHT22;33252;48.122;11.538;2023-12-28T06:38:55;4.00;88.20
47520;DHT22;33252;48.122;11.538;2023-12-28T06:41:20;4.00;88.30
47520;DHT22;33252;48.122;11.538;2023-12-28T06:43:46;4.00;88.70
47520;DHT22;33252;48.122;11.538;2023-12-28T06:46:11;4.00;88.20
47520;DHT22;33252;48.122;11.538;2023-12-28T06:48:37;4.10;87.40
47520;DHT22;33252;48.122;11.538;2023-12-28T06:51:09;4.20;87.50
47520;DHT22;33252;48.122;11.538;2023-12-28T06:53:34;4.20;87.10
47520;DHT22;33252;48.122;11.538;2023-12-28T06:56:00;4.30;86.50
47520;DHT22;33252;48.122;11.538;2023-12-28T06:58:25;4.30;86.20
47520;DHT22;33252;48.122;11.538;2023-12-28T07:00:51;4.30;86.40
47520;DHT22;33252;48.122;11.538;2023-12-28T07:03:16;4.30;86.30
47520;DHT22;33252;48.122;11.538;2023-12-28T07:05:42;4.30;86.30
47520;DHT22;33252;48.122;11.538;2023-12-28T07:08:08;4.30;85.90
47520;DHT22;33252;48.122;11.538;2023-12-28T07:10:34;4.40;85.80
47520;DHT22;33252;48.122;11.538;2023-12-28T07:12:59;4.50;85.10
47520;DHT22;33252;48.122;11.538;2023-12-28T07:15:25;4.40;85.90
47520;DHT22;33252;48.122;11.538;2023-12-28T07:17:50;4.50;85.40
47520;DHT22;33252;48.122;11.538;2023-12-28T07:20:16;4.60;85.10
47520;DHT22;33252;48.122;11.538;2023-12-28T07:22:41;4.60;85.60
47520;DHT22;33252;48.122;11.538;2023-12-28T07:25:07;4.60;85.30
47520;DHT22;33252;48.122;11.538;2023-12-28T07:27:36;4.60;85.00
47520;DHT22;33252;48.122;11.538;2023-12-28T07:30:02;4.60;84.90
47520;DHT22;33252;48.122;11.538;2023-12-28T07:32:31;4.70;84.40
47520;DHT22;33252;48.122;11.538;2023-12-28T07:34:56;4.80;84.00
47520;DHT22;33252;48.122;11.538;2023-12-28T07:37:22;4.90;84.00
47520;DHT22;33252;48.122;11.538;2023-12-28T07:39:47;4.80;84.80
47520;DHT22;33252;48.122;11.538;2023-12-28T07:42:13;4.90;83.70
47520;DHT22;33252;48.122;11.538;2023-12-28T07:44:39;4.90;83.60
47520;DHT22;33252;48.122;11.538;2023-12-28T07:47:04;5.00;83.50
47520;DHT22;33252;48.122;11.538;2023-12-28T07:49:31;5.00;84.10
47520;DHT22;33252;48.122;11.538;2023-12-28T07:51:56;5.00;84.30
47520;DHT22;33252;48.122;11.538;2023-12-28T07:54:22;5.00;84.00
47520;DHT22;33252;48.122;11.538;2023-12-28T07:56:48;5.00;83.90
47520;DHT22;33252;48.122;11.538;2023-12-28T07:59:13;5.10;84.40
47520;DHT22;33252;48.122;11.538;2023-12-28T08:01:39;5.10;83.60
47520;DHT22;33252;48.122;11.538;2023-12-28T08:04:04;5.10;83.80
47520;DHT22;33252;48.122;11.538;2023-12-28T08:06:30;5.20;83.60
47520;DHT22;33252;48.122;11.538;2023-12-28T08:08:58;5.30;83.90
47520;DHT22;33252;48.122;11.538;2023-12-28T08:11:28;5.30;83.40
47520;DHT22;33252;48.122;11.538;2023-12-28T08:13:54;5.30;83.60
47520;DHT22;33252;48.122;11.538;2023-12-28T08:16:20;5.40;83.40
47520;DHT22;33252;48.122;11.538;2023-12-28T08:18:46;5.50;82.90
47520;DHT22;33252;48.122;11.538;2023-12-28T08:21:11;5.60;82.90
47520;DHT22;33252;48.122;11.538;2023-12-28T08:23:37;5.70;82.70
47520;DHT22;33252;48.122;11.538;2023-12-28T08:26:03;5.80;82.00
47520;DHT22;33252;48.122;11.538;2023-12-28T08:28:29;5.90;82.30
47520;DHT22;33252;48.122;11.538;2023-12-28T08:30:56;6.00;82.80
47520;DHT22;33252;48.122;11.538;2023-12-28T08:33:22;6.10;82.30
47520;DHT22;33252;48.122;11.538;2023-12-28T08:35:48;6.10;82.30
47520;DHT22;33252;48.122;11.538;2023-12-28T08:38:13;6.40;81.60
47520;DHT22;33252;48.122;11.538;2023-12-28T08:40:39;6.40;81.50
47520;DHT22;33252;48.122;11.538;2023-12-28T08:43:04;6.50;80.90
47520;DHT22;33252;48.122;11.538;2023-12-28T08:45:30;6.60;80.70
47520;DHT22;33252;48.122;11.538;2023-12-28T08:47:55;6.70;80.60
47520;DHT22;33252;48.122;11.538;2023-12-28T08:50:21;6.80;79.80
47520;DHT22;33252;48.122;11.538;2023-12-28T08:52:47;6.90;79.60
47520;DHT22;33252;48.122;11.538;2023-12-28T08:55:13;7.10;78.90
47520;DHT22;33252;48.122;11.538;2023-12-28T08:57:39;7.30;78.10
47520;DHT22;33252;48.122;11.538;2023-12-28T09:00:06;7.50;77.80
47520;DHT22;33252;48.122;11.538;2023-12-28T09:02:31;7.50;77.50
47520;DHT22;33252;48.122;11.538;2023-12-28T09:04:58;7.60;77.80
47520;DHT22;33252;48.122;11.538;2023-12-28T09:07:24;7.60;77.30
47520;DHT22;33252;48.122;11.538;2023-12-28T09:09:49;7.70;77.80
47520;DHT22;33252;48.122;11.538;2023-12-28T09:12:15;7.80;78.00
47520;DHT22;33252;48.122;11.538;2023-12-28T09:14:40;7.80;77.60
47520;DHT22;33252;48.122;11.538;2023-12-28T09:17:06;7.90;77.20
47520;DHT22;33252;48.122;11.538;2023-12-28T09:19:32;8.00;77.00
47520;DHT22;33252;48.122;11.538;2023-12-28T09:21:57;8.10;77.00
47520;DHT22;33252;48.122;11.538;2023-12-28T09:24:23;8.10;77.20
47520;DHT22;33252;48.122;11.538;2023-12-28T09:26:48;8.20;76.40
47520;DHT22;33252;48.122;11.538;2023-12-28T09:29:14;8.30;76.00
47520;DHT22;33252;48.122;11.538;2023-12-28T09:31:40;8.50;75.30
47520;DHT22;33252;48.122;11.538;2023-12-28T09:34:05;8.50;75.60
47520;DHT22;33252;48.122;11.538;2023-12-28T09:36:31;8.70;75.00
47520;DHT22;33252;48.122;11.538;2023-12-28T09:38:57;8.70;75.80
47520;DHT22;33252;48.122;11.538;2023-12-28T09:41:26;8.70;75.90
47520;DHT22;33252;48.122;11.538;2023-12-28T09:43:53;8.70;75.80
47520;DHT22;33252;48.122;11.538;2023-12-28T09:46:20;8.80;76.20
47520;DHT22;33252;48.122;11.538;2023-12-28T09:48:46;8.70;76.10
47520;DHT22;33252;48.122;11.538;2023-12-28T09:51:12;8.90;75.50
47520;DHT22;33252;48.122;11.538;2023-12-28T09:53:38;8.90;75.90
47520;DHT22;33252;48.122;11.538;2023-12-28T09:56:04;9.00;75.70
47520;DHT22;33252;48.122;11.538;2023-12-28T09:58:32;9.10;75.30
47520;DHT22;33252;48.122;11.538;2023-12-28T10:00:59;9.10;75.10
47520;DHT22;33252;48.122;11.538;2023-12-28T10:03:25;9.10;74.90
47520;DHT22;33252;48.122;11.538;2023-12-28T10:05:51;9.20;74.80
47520;DHT22;33252;48.122;11.538;2023-12-28T10:08:16;9.30;74.40
47520;DHT22;33252;48.122;11.538;2023-12-28T10:10:43;9.40;73.60
47520;DHT22;33252;48.122;11.538;2023-12-28T10:13:10;9.40;74.10
47520;DHT22;33252;48.122;11.538;2023-12-28T10:15:36;9.50;73.00
47520;DHT22;33252;48.122;11.538;2023-12-28T10:18:03;9.40;73.70
47520;DHT22;33252;48.122;11.538;2023-12-28T10:20:29;9.50;74.00
47520;DHT22;33252;48.122;11.538;2023-12-28T10:22:55;9.50;73.20
47520;DHT22;33252;48.122;11.538;2023-12-28T10:25:20;9.70;72.50
47520;DHT22;33252;48.122;11.538;2023-12-28T10:27:49;9.80;72.50
47520;DHT22;33252;48.122;11.538;2023-12-28T10:30:15;9.80;72.40
47520;DHT22;33252;48.122;11.538;2023-12-28T10:32:41;9.70;72.20
47520;DHT22;33252;48.122;11.538;2023-12-28T10:35:07;9.80;72.40
47520;DHT22;33252;48.122;11.538;2023-12-28T10:37:33;9.80;72.90
47520;DHT22;33252;48.122;11.538;2023-12-28T10:40:05;9.90;73.10
47520;DHT22;33252;48.122;11.538;2023-12-28T10:42:34;9.90;72.10
47520;DHT22;33252;48.122;11.538;2023-12-28T10:45:04;10.00;72.30
47520;DHT22;33252;48.122;11.538;2023-12-28T10:47:37;10.00;72.30
47520;DHT22;33252;48.122;11.538;2023-12-28T10:50:04;10.00;72.10
47520;DHT22;33252;48.122;11.538;2023-12-28T10:52:31;10.00;72.40
47520;DHT22;33252;48.122;11.538;2023-12-28T10:58:09;9.90;72.60
47520;DHT22;33252;48.122;11.538;2023-12-28T11:00:41;9.90;72.60
47520;DHT22;33252;48.122;11.538;2023-12-28T11:03:11;9.90;72.70
47520;DHT22;33252;48.122;11.538;2023-12-28T11:05:37;9.90;72.70
47520;DHT22;33252;48.122;11.538;2023-12-28T11:08:05;9.90;73.30
47520;DHT22;33252;48.122;11.538;2023-12-28T11:10:32;9.90;73.10
47520;DHT22;33252;48.122;11.538;2023-12-28T11:12:59;9.90;72.60
47520;DHT22;33252;48.122;11.538;2023-12-28T11:15:26;10.00;72.70
47520;DHT22;33252;48.122;11.538;2023-12-28T11:17:53;9.90;72.70
47520;DHT22;33252;48.122;11.538;2023-12-28T11:20:19;9.90;72.20
47520;DHT22;33252;48.122;11.538;2023-12-28T11:22:45;9.90;72.50
47520;DHT22;33252;48.122;11.538;2023-12-28T11:25:15;10.00;72.30
47520;DHT22;33252;48.122;11.538;2023-12-28T11:27:41;10.00;72.90
47520;DHT22;33252;48.122;11.538;2023-12-28T11:30:10;10.00;72.80
47520;DHT22;33252;48.122;11.538;2023-12-28T11:32:36;10.00;73.40
47520;DHT22;33252;48.122;11.538;2023-12-28T11:35:02;10.00;73.20
47520;DHT22;33252;48.122;11.538;2023-12-28T11:37:29;10.00;72.80
47520;DHT22;33252;48.122;11.538;2023-12-28T11:39:56;10.00;73.20
47520;DHT22;33252;48.122;11.538;2023-12-28T11:42:23;10.00;73.30
47520;DHT22;33252;48.122;11.538;2023-12-28T11:44:55;10.10;72.60
47520;DHT22;33252;48.122;11.538;2023-12-28T11:47:22;10.10;72.90
47520;DHT22;33252;48.122;11.538;2023-12-28T11:49:48;10.10;72.50
47520;DHT22;33252;48.122;11.538;2023-12-28T11:52:30;10.20;72.90
47520;DHT22;33252;48.122;11.538;2023-12-28T11:54:56;10.30;72.20
47520;DHT22;33252;48.122;11.538;2023-12-28T11:57:23;10.30;72.30
47520;DHT22;33252;48.122;11.538;2023-12-28T11:59:59;10.40;72.50
47520;DHT22;33252;48.122;11.538;2023-12-28T12:02:25;10.40;71.80
47520;DHT22;33252;48.122;11.538;2023-12-28T12:04:51;10.40;71.80
47520;DHT22;33252;48.122;11.538;2023-12-28T12:07:16;10.50;72.10
47520;DHT22;33252;48.122;11.538;2023-12-28T12:09:42;10.60;71.00
47520;DHT22;33252;48.122;11.538;2023-12-28T12:12:08;10.50;71.60
47520;DHT22;33252;48.122;11.538;2023-12-28T12:14:35;10.50;71.40
47520;DHT22;33252;48.122;11.538;2023-12-28T12:17:01;10.50;71.40
47520;DHT22;33252;48.122;11.538;2023-12-28T12:19:27;10.50;71.70
47520;DHT22;33252;48.122;11.538;2023-12-28T12:21:53;10.50;72.30
47520;DHT22;33252;48.122;11.538;2023-12-28T12:24:20;10.50;72.30
47520;DHT22;33252;48.122;11.538;2023-12-28T12:26:46;10.50;73.10
47520;DHT22;33252;48.122;11.538;2023-12-28T12:29:12;10.50;73.10
47520;DHT22;33252;48.122;11.538;2023-12-28T12:31:38;10.50;73.40
47520;DHT22;33252;48.122;11.538;2023-12-28T12:34:09;10.50;73.20
47520;DHT22;33252;48.122;11.538;2023-12-28T12:36:35;10.40;73.50
47520;DHT22;33252;48.122;11.538;2023-12-28T12:39:01;10.50;72.80
47520;DHT22;33252;48.122;11.538;2023-12-28T12:41:27;10.60;73.00
47520;DHT22;33252;48.122;11.538;2023-12-28T12:43:53;10.60;72.40
47520;DHT22;33252;48.122;11.538;2023-12-28T12:46:21;10.60;73.40
47520;DHT22;33252;48.122;11.538;2023-12-28T12:49:00;10.50;73.40
47520;DHT22;33252;48.122;11.538;2023-12-28T12:51:28;10.50;73.90
47520;DHT22;33252;48.122;11.538;2023-12-28T12:53:57;10.60;73.70
47520;DHT22;33252;48.122;11.538;2023-12-28T12:56:25;10.50;73.60
47520;DHT22;33252;48.122;11.538;2023-12-28T12:58:50;10.50;73.60
47520;DHT22;33252;48.122;11.538;2023-12-28T13:01:16;10.50;74.00
47520;DHT22;33252;48.122;11.538;2023-12-28T13:03:42;10.40;74.20
47520;DHT22;33252;48.122;11.538;2023-12-28T13:06:07;10.60;73.70
47520;DHT22;33252;48.122;11.538;2023-12-28T13:08:33;10.50;74.10
47520;DHT22;33252;48.122;11.538;2023-12-28T13:10:58;10.60;73.80
47520;DHT22;33252;48.122;11.538;2023-12-28T13:13:24;10.60;73.90
47520;DHT22;33252;48.122;11.538;2023-12-28T13:15:49;10.50;74.20
47520;DHT22;33252;48.122;11.538;2023-12-28T13:18:15;10.50;74.90
47520;DHT22;33252;48.122;11.538;2023-12-28T13:20:41;10.50;74.90
47520;DHT22;33252;48.122;11.538;2023-12-28T13:23:08;10.60;74.00
47520;DHT22;33252;48.122;11.538;2023-12-28T13:25:33;10.80;73.70
47520;DHT22;33252;48.122;11.538;2023-12-28T13:27:59;10.80;74.00
47520;DHT22;33252;48.122;11.538;2023-12-28T13:30:25;10.70;75.10
47520;DHT22;33252;48.122;11.538;2023-12-28T13:32:54;10.70;74.70
47520;DHT22;33252;48.122;11.538;2023-12-28T13:35:20;10.80;74.30
47520;DHT22;33252;48.122;11.538;2023-12-28T13:37:45;10.80;74.30
47520;DHT22;33252;48.122;11.538;2023-12-28T13:40:11;10.70;74.60
47520;DHT22;33252;48.122;11.538;2023-12-28T13:42:37;10.70;74.90
47520;DHT22;33252;48.122;11.538;2023-12-28T13:45:02;10.70;75.00
47520;DHT22;33252;48.122;11.538;2023-12-28T13:47:28;10.60;75.50
47520;DHT22;33252;48.122;11.538;2023-12-28T13:49:54;10.50;75.80
47520;DHT22;33252;48.122;11.538;2023-12-28T13:52:19;10.50;76.10
47520;DHT22;33252;48.122;11.538;2023-12-28T13:54:45;10.50;76.00
47520;DHT22;33252;48.122;11.538;2023-12-28T13:57:11;10.50;76.30
47520;DHT22;33252;48.122;11.538;2023-12-28T13:59:36;10.50;76.60
47520;DHT22;33252;48.122;11.538;2023-12-28T14:02:02;10.40;77.00
47520;DHT22;33252;48.122;11.538;2023-12-28T14:04:28;10.40;76.70
47520;DHT22;33252;48.122;11.538;2023-12-28T14:06:54;10.40;77.00
47520;DHT22;33252;48.122;11.538;2023-12-28T14:09:19;10.40;77.00
47520;DHT22;33252;48.122;11.538;2023-12-28T14:11:47;10.40;77.30
47520;DHT22;33252;48.122;11.538;2023-12-28T14:14:13;10.30;77.10
47520;DHT22;33252;48.122;11.538;2023-12-28T14:16:39;10.30;77.70
47520;DHT22;33252;48.122;11.538;2023-12-28T14:19:04;10.30;77.80
47520;DHT22;33252;48.122;11.538;2023-12-28T14:21:35;10.30;77.70
47520;DHT22;33252;48.122;11.538;2023-12-28T14:24:02;10.30;78.10
47520;DHT22;33252;48.122;11.538;2023-12-28T14:26:27;10.30;78.10
47520;DHT22;33252;48.122;11.538;2023-12-28T14:28:53;10.20;78.10
47520;DHT22;33252;48.122;11.538;2023-12-28T14:31:19;10.20;78.20
47520;DHT22;33252;48.122;11.538;2023-12-28T14:33:45;10.10;78.20
47520;DHT22;33252;48.122;11.538;2023-12-28T14:38:48;10.20;78.00
47520;DHT22;33252;48.122;11.538;2023-12-28T14:41:14;10.20;78.10
47520;DHT22;33252;48.122;11.538;2023-12-28T14:43:39;10.20;78.60
47520;DHT22;33252;48.122;11.538;2023-12-28T14:46:05;10.10;78.70
47520;DHT22;33252;48.122;11.538;2023-12-28T14:48:30;10.10;78.60
47520;DHT22;33252;48.122;11.538;2023-12-28T14:50:57;10.20;78.60
47520;DHT22;33252;48.122;11.538;2023-12-28T14:53:22;10.20;78.60
47520;DHT22;33252;48.122;11.538;2023-12-28T14:55:50;10.20;78.60
47520;DHT22;33252;48.122;11.538;2023-12-28T14:58:16;10.20;78.20
47520;DHT22;33252;48.122;11.538;2023-12-28T15:00:44;10.20;78.50
47520;DHT22;33252;48.122;11.538;2023-12-28T15:03:10;10.20;78.60
47520;DHT22;33252;48.122;11.538;2023-12-28T15:05:36;10.20;78.40
47520;DHT22;33252;48.122;11.538;2023-12-28T15:08:02;10.20;78.10
47520;DHT22;33252;48.122;11.538;2023-12-28T15:10:27;10.30;77.90
47520;DHT22;33252;48.122;11.538;2023-12-28T15:12:53;10.20;78.20
47520;DHT22;33252;48.122;11.538;2023-12-28T15:15:19;10.30;77.20
47520;DHT22;33252;48.122;11.538;2023-12-28T15:17:45;10.20;77.30
47520;DHT22;33252;48.122;11.538;2023-12-28T15:20:11;10.30;77.30
47520;DHT22;33252;48.122;11.538;2023-12-28T15:22:38;10.30;76.40
47520;DHT22;33252;48.122;11.538;2023-12-28T15:25:04;10.30;75.90
47520;DHT22;33252;48.122;11.538;2023-12-28T15:27:32;10.40;75.90
47520;DHT22;33252;48.122;11.538;2023-12-28T15:29:57;10.40;75.70